Historyczne dane pomiarowe

Dodano dane terminowe – wersja testowa.

Dane z okresu 1951-2019

Wersja bazy: 1.34 [2019-03-16, lista zmian], aktualizacja planowana na 2019-04-15

Dane meteo z obszaru Polski uzyskane na podstawie danych udostępnionych przez Instytut Meteorologii i Gospodarki Wodnej – Państwowy Instytut Badawczy.

 

Wybierz Datę:    

       

TemperaturaWilgotnośćWiatrCiśnienieOpadyŚniegCzas trwania zjawisk
 Stacja t tx tn tng RH VA  wxwx mslp ppp RRR   cm mm wxwxwxwxwxwxwx
1961-08-14 14.1 18.4 9.7 10.0-- 3.3 1.0---- 0.0------------
1961-08-13 14.2 17.1 13.2 13.7-- 7.7 2.7---- 0.0------------
1961-08-12 17.1 22.0 14.6 10.7-- 8.0 0.3---- 10.3------------
1961-08-11 18.3 22.4 16.8 14.0-- 8.0 2.0---- 4.2------------
1961-08-10 22.2 27.4 17.4 16.1-- 7.7 5.7---- 41.0------------
1961-08-09 21.3 27.2 11.2 10.7-- 5.3 1.3---- 1.8------------
1961-08-08 18.1 23.1 12.0 6.5-- 5.7 1.0---- 0.0------------
1961-08-07 18.7 24.3 17.6 13.3-- 6.7 1.7---- 2.6------------
1961-08-06 24.3 30.1 16.1 10.7-- 1.3 2.7---- 0.0------------
1961-08-05 19.2 24.0 15.1 13.4-- 4.3 2.0---- 0.0------------
1961-08-04 15.8 19.1 9.0 3.9-- 6.7 4.0---- 0.0------------
1961-08-03 14.3 18.8 12.6 13.0-- 5.7 2.0---- 3.5------------
1961-08-02 17.8 25.9 10.4 6.4-- 4.7 1.3---- 3.6------------
1961-08-01 13.8 19.2 11.4 10.4-- 6.0 3.0---- 0.9------------
1961-07-31 13.0 13.8 11.8 11.1-- 8.0 8.0---- 43.9------------
1961-07-30 13.4 15.2 10.0 6.9-- 8.0 2.3---- 20.1------------
1961-07-29 13.7 17.8 11.9 11.9-- 6.7 2.3---- 0.3------------
1961-07-28 16.3 19.6 14.6 11.5-- 8.0 2.3---- 25.8------------
1961-07-27 18.8 25.2 14.8 10.2-- 8.0 3.7---- 0.2------------
1961-07-26 17.4 22.1 10.5 5.0-- 8.0 2.7---- 0.0------------
1961-07-25 14.4 16.9 11.6 10.5-- 8.0 2.0---- 0.0------------
1961-07-24 13.7 16.5 11.4 8.1-- 8.0 4.0---- 0.0------------
1961-07-23 14.3 16.8 11.2 9.9-- 7.7 3.3---- 0.0------------
1961-07-22 14.0 18.7 12.9 11.1-- 8.0 2.7---- 5.1------------
1961-07-21 14.7 16.7 11.7 7.0-- 8.0 4.0---- 1.4------------
1961-07-20 15.0 21.2 8.0 4.7-- 7.0 0.7---- 1.3------------
1961-07-19 14.0 17.8 10.4 6.5-- 6.3 0.7---- 1.1------------
1961-07-18 14.3 18.5 11.3 8.7-- 6.7 1.7---- 3.9------------
1961-07-17 15.0 20.9 11.1 6.4-- 6.0 3.7---- 9.5------------
1961-07-16 15.1 19.7 13.2 9.3-- 6.0 1.7---- 6.0------------
1961-07-15 17.5 22.8 11.4 6.7-- 5.3 3.3---- 12.1------------
1961-07-14 13.7 18.1 12.1 12.2-- 4.3 5.0---- 0.0------------
1961-07-13 20.0 28.3 14.8 12.3-- 6.3 2.7---- 10.3------------
1961-07-12 19.5 26.7 12.1 10.2-- 2.7 1.7---- 0.0------------
1961-07-11 15.2 20.1 9.1 3.8-- 6.0 2.3---- 5.8------------
1961-07-10 13.3 16.9 10.0 7.3-- 6.7 3.3---- 1.0------------
1961-07-09 14.3 19.3 10.1 5.1-- 6.3 2.0---- 3.6------------
1961-07-08 15.8 21.2 5.6 1.6-- 3.0 1.7---- 0.0------------
1961-07-07 12.2 16.5 9.7 6.6-- 5.7 2.0---- 0.0------------
1961-07-06 11.6 14.5 7.9 4.5-- 6.3 6.0---- 4.6------------
1961-07-05 13.5 18.0 12.1 10.1-- 6.0 5.0---- 0.0------------
1961-07-04 17.5 25.1 14.5 14.1-- 7.7 3.0---- 0.0------------
1961-07-03 25.4 32.0 11.5 9.8-- 0.7 0.7---- 0.0------------
1961-07-02 22.4 30.0 9.7 6.8-- 0.0 1.0---- 0.0------------
1961-07-01 20.3 27.2 10.2 12.4-- 1.0 0.7---- 0.0------------
1961-06-30 19.3 25.8 8.7 6.1-- 0.3 2.3---- 0.0------------
1961-06-29 15.7 20.7 9.6 6.8-- 2.7 3.0---- 0.0------------
1961-06-28 14.1 28.8 13.0 14.5-- 5.0 4.3---- 0.0------------
1961-06-27 24.5 32.0 15.4 13.7-- 6.3 3.3---- 4.5------------
1961-06-26 22.8 28.9 14.4 10.6-- 6.0 0.0---- 0.0------------
1961-06-25 22.7 28.5 14.4 9.4-- 2.3 2.7---- 0.0------------
1961-06-24 18.3 22.7 12.7 8.9-- 6.7 3.7---- 0.0------------
1961-06-23 17.6 23.1 14.8 15.0-- 5.7 2.3---- 0.0------------
1961-06-22 17.9 23.1 6.8 3.7-- 5.0 2.3---- 4.0------------
1961-06-21 15.7 23.8 5.3 3.2-- 3.0 2.0---- 0.0------------
1961-06-20 14.7 20.0 8.3 4.2-- 1.7 3.0---- 0.0------------
1961-06-19 15.1 21.5 13.0 12.7-- 6.0 1.7---- 0.0------------
1961-06-18 21.2 27.0 12.0 7.6-- 2.0 2.3---- 0.0------------
1961-06-17 16.8 23.1 7.4 3.2-- 4.0 3.0---- 0.0------------
1961-06-16 13.5 17.0 9.7 7.8-- 4.0 3.0---- 0.0------------
382.5 ms

 

Źródłem pochodzenia danych jest Instytut Meteorologii i Gospodarki Wodnej – Państwowy Instytut Badawczy. Dane Instytutu Meteorologii i Gospodarki Wodnej – Państwowego Instytutu Badawczego zostały przetworzone.

Dane źródłowe można odnaleźć na stronie https://dane.imgw.pl